首页
METAR-TAF:

METAR-TAF

机场 :

赫尔辛基, 芬兰

赫尔辛基-万塔机场

纬度: 60-19N, 经度: 024-58E, 海拔: 51米

当前天气观测

该预报发布于30分钟前的21:50 UTC
风速5节,风向南转西南
温度 3°C
湿度 93%
气压 995 hPa
能见度10公里或以上
少量云层高于1500英尺

METAR: EFHK 252150Z 21005KT 9999 FEW015 03/02 Q0995 NOSIG

时间: 01:20 (22:20 UTC)

预报

该预报发布于1小时和57分钟前的20:23 UTC
预报有效从25日的 21点(UTC)到 26日的 21点(UTC)
风速8节,风向西南
能见度10公里或以上
多云层高于2000英尺
几率 40% :
短暂存在
从 25日的 21点(UTC)到 26日的 04点(UTC)
能見度: 2000
多云层高于400英尺
轻雾
成为
从 26日的 07点(UTC)到 26日的 09点(UTC)
风速12节,风向西转西北
短暂存在
从 26日的 09点(UTC)到 26日的 15点(UTC)
少量云层高于3000英尺, 积雨云.

TAF: EFHK 252023Z 2521/2621 22008KT 9999 BKN020 PROB40 TEMPO 2521/2604 2000 BR BKN004 BECMG 2607/2609 29012KT TEMPO 2609/2615 FEW030CB

超过4000个机场的气象观测和天气预报(METAR&TAF报告)。

可查询的气象台以黄色和红色小点在地图上表示。

将鼠标移到小点上方,可查看气象台名称。

然后点击查看天气观测和预报。

如需切换地图:点击带黑十字的绿色按钮放大地图;点击带横线的绿色按钮缩小地图;或者点击绿色箭头查看邻近地区的地图。


METAR-TAF: